Time;durP1;ratioP1;P1;durP2;ratioP2;P2;SDS_P1;SDS_P2;PMS_P1;PMS_P2;Temp;Humidity;BMP_temperature;BMP_pressure;BME280_temperature;BME280_humidity;BME280_pressure;Samples;Min_cycle;Max_cycle;Signal;HPM_P1;HPM_P2
2023/09/12 00:01:45;;;;;;;51.97;48.42;;;22.90;99.90;;;;;;5052139;28;20037;-75
2023/09/12 00:04:12;;;;;;;55.08;51.38;;;23.00;99.90;;;;;;5052281;28;20391;-76
2023/09/12 00:06:38;;;;;;;48.55;45.28;;;23.00;99.90;;;;;;5052958;28;20041;-75
2023/09/12 00:09:07;;;;;;;48.25;45.10;;;23.00;99.90;;;;;;5052560;28;20348;-75
2023/09/12 00:11:33;;;;;;;51.33;47.92;;;23.00;99.90;;;;;;5052552;28;20036;-76
2023/09/12 00:13:59;;;;;;;53.95;50.35;;;22.90;99.90;;;;;;5051310;28;20049;-76
2023/09/12 00:16:25;;;;;;;48.75;45.35;;;22.90;99.90;;;;;;5051839;28;20029;-76
2023/09/12 00:18:51;;;;;;;50.10;46.80;;;22.90;99.90;;;;;;5052753;28;20025;-76
2023/09/12 00:21:17;;;;;;;54.22;50.78;;;23.00;99.90;;;;;;5052298;28;20037;-76
2023/09/12 00:23:43;;;;;;;52.60;49.10;;;23.10;99.90;;;;;;5052247;28;20033;-75
2023/09/12 00:26:09;;;;;;;55.70;52.20;;;23.20;99.90;;;;;;5052213;28;20029;-75
2023/09/12 00:28:37;;;;;;;58.83;55.00;;;23.30;99.90;;;;;;5052505;28;20025;-75
2023/09/12 00:31:03;;;;;;;65.93;61.80;;;23.30;99.90;;;;;;5051805;28;20029;-76
2023/09/12 00:33:29;;;;;;;64.50;60.60;;;23.20;99.90;;;;;;5052495;28;20490;-76
2023/09/12 00:35:55;;;;;;;65.40;61.15;;;23.30;99.90;;;;;;5051942;28;20037;-76
2023/09/12 00:38:21;;;;;;;54.30;50.78;;;23.40;99.90;;;;;;5052051;28;20033;-76
2023/09/12 00:40:47;;;;;;;55.95;52.28;;;23.40;99.90;;;;;;5058542;28;20056;-76
2023/09/12 00:43:13;;;;;;;62.20;58.03;;;23.40;99.90;;;;;;5052073;28;20041;-75
2023/09/12 00:45:40;;;;;;;53.97;50.20;;;23.40;99.90;;;;;;5051401;28;20048;-75
2023/09/12 00:48:06;;;;;;;61.65;57.63;;;23.40;99.90;;;;;;5052288;28;20399;-75
2023/09/12 00:50:32;;;;;;;69.35;64.97;;;23.20;99.90;;;;;;5034151;28;20025;-75
2023/09/12 00:52:58;;;;;;;69.68;65.45;;;23.30;99.90;;;;;;5050105;28;20040;-76
2023/09/12 00:55:24;;;;;;;67.75;63.53;;;23.20;99.90;;;;;;5051738;28;20040;-76
2023/09/12 00:57:51;;;;;;;63.55;59.75;;;22.90;99.90;;;;;;5050972;28;20032;-76
2023/09/12 01:00:17;;;;;;;59.13;55.40;;;22.90;99.90;;;;;;5051238;28;20470;-75
2023/09/12 01:02:44;;;;;;;56.85;52.88;;;22.90;99.90;;;;;;5050796;28;20498;-76
2023/09/12 01:05:10;;;;;;;55.00;51.38;;;23.00;99.90;;;;;;5052003;28;20045;-75
2023/09/12 01:07:37;;;;;;;59.25;55.13;;;23.10;99.90;;;;;;5051842;28;20033;-75
2023/09/12 01:10:07;;;;;;;51.05;47.58;;;23.20;99.90;;;;;;5051915;28;20045;-76
2023/09/12 01:12:33;;;;;;;51.58;48.17;;;23.20;99.90;;;;;;5050447;28;20025;-76
2023/09/12 01:14:59;;;;;;;53.75;50.22;;;23.20;99.90;;;;;;5051844;28;20045;-76
2023/09/12 01:17:26;;;;;;;62.78;58.60;;;23.10;99.90;;;;;;5054864;28;20052;-76
2023/09/12 01:19:52;;;;;;;64.72;60.60;;;23.00;99.90;;;;;;5056114;28;20029;-76
2023/09/12 01:22:21;;;;;;;62.42;58.63;;;23.10;99.90;;;;;;5037510;28;20388;-75
2023/09/12 01:24:48;;;;;;;65.18;60.78;;;23.20;99.90;;;;;;5055899;28;20032;-75
2023/09/12 01:27:49;;;;;;;60.35;56.40;;;23.20;99.90;;;;;;5055417;28;20045;-75
2023/09/12 01:30:20;;;;;;;58.95;55.25;;;23.20;99.90;;;;;;5032662;28;20052;-75
2023/09/12 01:32:47;;;;;;;51.63;48.13;;;23.20;99.90;;;;;;5016736;28;20507;-75
2023/09/12 01:35:13;;;;;;;53.35;49.85;;;23.10;99.90;;;;;;5015895;28;20534;-76
2023/09/12 01:37:39;;;;;;;51.00;47.47;;;23.10;99.90;;;;;;5016558;28;20044;-76
2023/09/12 01:40:06;;;;;;;50.13;46.60;;;23.00;99.90;;;;;;5033254;28;20037;-76
2023/09/12 01:42:46;;;;;;;53.35;49.67;;;23.00;99.90;;;;;;5032886;28;20056;-76
2023/09/12 01:45:17;;;;;;;52.78;49.47;;;23.00;99.90;;;;;;5000311;28;20049;-76
2023/09/12 01:47:43;;;;;;;51.88;48.25;;;23.00;99.90;;;;;;5017053;28;20365;-76
2023/09/12 01:50:12;;;;;;;58.63;54.67;;;23.00;99.90;;;;;;5016273;28;20041;-76
2023/09/12 01:52:39;;;;;;;58.67;54.80;;;23.00;99.90;;;;;;5016581;28;20492;-76
2023/09/12 01:55:05;;;;;;;57.13;53.40;;;23.00;99.90;;;;;;5016790;28;20041;-76
2023/09/12 01:57:32;;;;;;;57.22;53.40;;;22.90;99.90;;;;;;5013125;28;20034;-75
2023/09/12 01:59:58;;;;;;;57.92;53.97;;;22.90;99.90;;;;;;5012960;28;20062;-75
2023/09/12 02:02:24;;;;;;;57.95;54.20;;;23.00;99.90;;;;;;5030932;28;20462;-75
2023/09/12 02:05:07;;;;;;;60.90;56.75;;;23.00;99.90;;;;;;5033726;28;20049;-75
2023/09/12 02:07:35;;;;;;;56.10;52.50;;;22.70;99.90;;;;;;5053731;28;20025;-76
2023/09/12 02:10:01;;;;;;;59.78;55.90;;;22.80;99.90;;;;;;5037647;28;20044;-76
2023/09/12 02:12:27;;;;;;;61.25;57.10;;;22.80;99.90;;;;;;5054586;28;20017;-76
2023/09/12 02:14:53;;;;;;;63.08;59.00;;;22.80;99.90;;;;;;5054760;28;20060;-76
2023/09/12 02:17:19;;;;;;;61.65;57.75;;;22.80;99.90;;;;;;5054060;28;20037;-75
2023/09/12 02:19:47;;;;;;;58.53;54.63;;;22.80;99.90;;;;;;5054650;28;20029;-75
2023/09/12 02:22:13;;;;;;;50.05;46.60;;;22.70;99.90;;;;;;5055004;28;20045;-76
2023/09/12 02:24:40;;;;;;;56.15;52.10;;;22.70;99.90;;;;;;5054692;28;20048;-76
2023/09/12 02:27:06;;;;;;;55.83;52.25;;;22.70;99.90;;;;;;5053644;28;20033;-75
2023/09/12 02:29:35;;;;;;;51.50;47.63;;;22.60;99.90;;;;;;5054815;28;20036;-76
2023/09/12 02:32:01;;;;;;;53.55;49.97;;;22.60;99.90;;;;;;5053621;28;20475;-76
2023/09/12 02:34:27;;;;;;;51.67;48.17;;;22.30;99.90;;;;;;5054254;28;20025;-76
2023/09/12 02:36:53;;;;;;;51.08;47.78;;;22.30;99.90;;;;;;5054184;28;20460;-76
2023/09/12 02:39:19;;;;;;;48.65;45.25;;;22.50;99.90;;;;;;5054418;28;20033;-76
2023/09/12 02:41:45;;;;;;;51.20;47.47;;;22.50;99.90;;;;;;5047443;28;20468;-75
2023/09/12 02:44:11;;;;;;;52.97;49.03;;;22.40;99.90;;;;;;5054411;28;20168;-76
2023/09/12 02:46:37;;;;;;;51.28;47.78;;;22.30;99.90;;;;;;5053553;28;20511;-75
2023/09/12 02:49:03;;;;;;;52.60;48.17;;;22.10;99.90;;;;;;5054071;28;20033;-75
2023/09/12 02:51:30;;;;;;;41.78;38.42;;;22.10;99.90;;;;;;5053946;28;20388;-76
2023/09/12 02:53:57;;;;;;;45.65;42.15;;;22.20;99.90;;;;;;5054128;28;20033;-76
2023/09/12 02:56:23;;;;;;;43.80;40.05;;;22.20;99.90;;;;;;5052647;28;20029;-75
2023/09/12 02:58:49;;;;;;;44.67;41.22;;;22.10;99.90;;;;;;5054400;28;20040;-76
2023/09/12 03:01:18;;;;;;;47.53;43.28;;;22.20;99.90;;;;;;5053198;28;20502;-75
2023/09/12 03:03:51;;;;;;;49.38;45.28;;;22.20;99.90;;;;;;5053526;28;20033;-75
2023/09/12 03:06:20;;;;;;;49.70;45.15;;;22.30;99.90;;;;;;5068891;28;20052;-75
2023/09/12 03:08:47;;;;;;;47.53;43.38;;;22.20;99.90;;;;;;5053074;28;20056;-75
2023/09/12 03:11:13;;;;;;;46.38;42.33;;;22.10;99.90;;;;;;5053704;28;20044;-75
2023/09/12 03:13:40;;;;;;;41.17;37.75;;;22.00;99.90;;;;;;5052543;28;20056;-76
2023/09/12 03:16:15;;;;;;;39.58;36.08;;;21.80;99.90;;;;;;5051928;28;20037;-75
2023/09/12 03:18:41;;;;;;;36.28;33.25;;;21.60;99.90;;;;;;5053420;28;20081;-76
2023/09/12 03:21:08;;;;;;;40.00;36.58;;;21.60;99.90;;;;;;5051935;28;20044;-76
2023/09/12 03:23:34;;;;;;;37.67;34.60;;;21.60;99.90;;;;;;5052311;28;20041;-75
2023/09/12 03:26:03;;;;;;;35.33;32.17;;;21.50;99.90;;;;;;5053242;28;20039;-75
2023/09/12 03:28:30;;;;;;;32.92;30.10;;;21.50;99.90;;;;;;5053699;28;20025;-75
2023/09/12 03:31:21;;;;;;;33.17;30.00;;;21.50;99.90;;;;;;5052984;28;20037;-75
2023/09/12 03:33:49;;;;;;;35.03;32.08;;;21.40;99.90;;;;;;5033757;28;20387;-76
2023/09/12 03:36:16;;;;;;;32.53;29.63;;;21.30;99.90;;;;;;5042140;28;20045;-74
2023/09/12 03:38:42;;;;;;;34.22;31.23;;;21.40;99.90;;;;;;5050974;28;20041;-75
2023/09/12 03:41:08;;;;;;;32.88;29.77;;;21.40;99.90;;;;;;5053193;28;20395;-75
2023/09/12 03:43:35;;;;;;;35.83;32.92;;;21.50;99.90;;;;;;5053309;28;20029;-75
2023/09/12 03:46:01;;;;;;;35.38;32.28;;;21.50;99.90;;;;;;5052114;28;20037;-76
2023/09/12 03:48:27;;;;;;;36.67;33.28;;;21.50;99.90;;;;;;5053279;28;20029;-76
2023/09/12 03:50:53;;;;;;;34.25;31.15;;;21.40;99.90;;;;;;5052747;28;20391;-76
2023/09/12 03:53:19;;;;;;;38.15;34.85;;;21.50;99.90;;;;;;5053111;28;20047;-76
2023/09/12 03:55:45;;;;;;;40.97;37.53;;;21.50;99.90;;;;;;5052723;28;20410;-76
2023/09/12 03:58:11;;;;;;;41.03;37.58;;;21.40;99.90;;;;;;5053149;28;20036;-75
2023/09/12 04:00:37;;;;;;;37.20;34.00;;;21.30;99.90;;;;;;5051789;28;20059;-76
2023/09/12 04:03:03;;;;;;;35.97;33.08;;;21.30;99.90;;;;;;5052861;28;20025;-76
2023/09/12 04:05:29;;;;;;;33.50;30.67;;;21.30;99.90;;;;;;5052553;28;20037;-76
2023/09/12 04:07:56;;;;;;;33.65;30.85;;;21.20;99.90;;;;;;5052920;28;20095;-76
2023/09/12 04:10:22;;;;;;;36.88;33.35;;;21.20;99.90;;;;;;5052440;28;20065;-76
2023/09/12 04:12:48;;;;;;;35.30;32.08;;;21.20;99.90;;;;;;5051687;28;20029;-76
2023/09/12 04:15:14;;;;;;;36.67;33.33;;;21.30;99.90;;;;;;5051407;28;20048;-75
2023/09/12 04:17:40;;;;;;;44.15;40.28;;;21.30;99.90;;;;;;5052731;28;20025;-75
2023/09/12 04:20:06;;;;;;;51.17;47.05;;;21.30;99.90;;;;;;5052619;28;20025;-75
2023/09/12 04:22:33;;;;;;;50.63;46.30;;;21.20;99.90;;;;;;5052596;28;20037;-75
2023/09/12 04:24:59;;;;;;;59.85;55.33;;;21.20;99.90;;;;;;5051246;28;20033;-75
2023/09/12 04:27:25;;;;;;;82.78;77.10;;;21.30;99.90;;;;;;5052225;28;20040;-75
2023/09/12 04:29:51;;;;;;;100.78;94.13;;;21.40;99.90;;;;;;5052110;28;20033;-75
2023/09/12 04:32:23;;;;;;;53.22;49.20;;;21.40;99.90;;;;;;5041248;28;20526;-75
2023/09/12 04:34:51;;;;;;;65.38;61.00;;;21.40;99.90;;;;;;5032458;28;20041;-75
2023/09/12 04:37:18;;;;;;;56.22;52.30;;;21.60;99.90;;;;;;5048338;28;20037;-75
2023/09/12 04:39:44;;;;;;;49.35;45.83;;;21.40;99.90;;;;;;5050392;28;20029;-75
2023/09/12 04:42:10;;;;;;;88.78;83.18;;;21.30;99.90;;;;;;5052089;28;20032;-75
2023/09/12 04:44:40;;;;;;;73.65;69.00;;;21.30;99.90;;;;;;5051845;28;20438;-76
2023/09/12 04:47:06;;;;;;;84.60;79.28;;;21.40;99.90;;;;;;5051467;28;20041;-76
2023/09/12 04:49:32;;;;;;;69.32;64.95;;;21.60;99.90;;;;;;5051028;28;20040;-76
2023/09/12 04:51:58;;;;;;;92.03;86.38;;;21.70;99.90;;;;;;5052211;28;20036;-75
2023/09/12 04:54:24;;;;;;;76.57;71.72;;;21.90;99.90;;;;;;5052022;28;20024;-76
2023/09/12 04:56:50;;;;;;;78.25;73.30;;;22.00;99.90;;;;;;5051890;28;20029;-76
2023/09/12 04:59:16;;;;;;;99.93;93.78;;;22.10;99.90;;;;;;5051970;28;20039;-76
2023/09/12 05:01:42;;;;;;;92.68;87.35;;;22.20;99.90;;;;;;5049947;28;20029;-77
2023/09/12 05:04:09;;;;;;;75.68;71.32;;;22.10;99.90;;;;;;5050607;28;20044;-76
2023/09/12 05:06:35;;;;;;;48.28;45.33;;;22.00;99.90;;;;;;5051855;28;20818;-75
2023/09/12 05:09:02;;;;;;;54.20;51.17;;;22.00;99.90;;;;;;5051927;28;20032;-75
2023/09/12 05:11:28;;;;;;;69.85;66.07;;;22.00;99.90;;;;;;5052141;28;20044;-75
2023/09/12 05:13:55;;;;;;;78.32;74.22;;;22.00;99.90;;;;;;5051505;28;20484;-75
2023/09/12 05:16:21;;;;;;;71.13;67.50;;;22.00;99.90;;;;;;5051675;28;20029;-75
2023/09/12 05:18:49;;;;;;;69.40;65.95;;;22.10;99.90;;;;;;5051906;28;20376;-75
2023/09/12 05:21:15;;;;;;;70.25;66.57;;;22.10;99.90;;;;;;5051781;28;20056;-75
2023/09/12 05:23:41;;;;;;;52.72;49.88;;;22.20;99.90;;;;;;5052424;28;20040;-77
2023/09/12 05:26:07;;;;;;;51.17;48.40;;;22.30;99.90;;;;;;5051618;28;20041;-76
2023/09/12 05:28:34;;;;;;;47.05;44.35;;;22.30;99.90;;;;;;5051480;28;20025;-77
2023/09/12 05:31:00;;;;;;;51.78;49.05;;;22.30;99.90;;;;;;5051220;28;20044;-77
2023/09/12 05:33:26;;;;;;;71.15;67.45;;;22.20;99.90;;;;;;5051804;28;20033;-77
2023/09/12 05:35:52;;;;;;;54.97;51.92;;;22.30;99.90;;;;;;5051672;28;20490;-78
2023/09/12 05:38:18;;;;;;;86.07;81.70;;;22.30;99.90;;;;;;5051735;28;20029;-78
2023/09/12 05:40:44;;;;;;;90.53;85.60;;;22.20;99.90;;;;;;5051381;28;20527;-75
2023/09/12 05:43:10;;;;;;;95.70;90.82;;;22.10;99.90;;;;;;5051504;28;20041;-75
2023/09/12 05:45:36;;;;;;;87.70;83.07;;;22.10;99.90;;;;;;5051140;28;20407;-75
2023/09/12 05:48:03;;;;;;;80.65;76.40;;;22.00;99.90;;;;;;5051705;28;20036;-75
2023/09/12 05:50:29;;;;;;;89.88;84.88;;;21.80;99.90;;;;;;5051461;28;20346;-75
2023/09/12 05:52:55;;;;;;;84.60;80.22;;;21.80;99.90;;;;;;5051710;28;20048;-74
2023/09/12 05:55:21;;;;;;;118.45;112.30;;;21.80;99.90;;;;;;5051444;28;20029;-76
2023/09/12 05:57:52;;;;;;;95.00;90.07;;;21.80;99.90;;;;;;5051315;28;20140;-75
2023/09/12 06:00:18;;;;;;;113.18;107.43;;;21.80;99.90;;;;;;5050869;28;20506;-77
2023/09/12 06:02:45;;;;;;;122.25;116.10;;;21.90;99.90;;;;;;5053932;28;20025;-75
2023/09/12 06:05:11;;;;;;;163.48;155.27;;;21.80;99.90;;;;;;5054964;28;20075;-75
2023/09/12 06:07:40;;;;;;;136.60;129.85;;;21.70;99.90;;;;;;5055248;28;20029;-74
2023/09/12 06:10:07;;;;;;;157.10;149.20;;;21.60;99.90;;;;;;5054858;28;20045;-75
2023/09/12 06:12:35;;;;;;;119.78;113.72;;;21.60;99.90;;;;;;5053513;28;20032;-75
2023/09/12 06:15:05;;;;;;;98.70;93.78;;;21.50;99.90;;;;;;5053262;28;20041;-74
2023/09/12 06:17:31;;;;;;;105.10;99.82;;;21.50;99.90;;;;;;5054620;28;20029;-75
2023/09/12 06:19:57;;;;;;;114.07;108.30;;;21.40;99.90;;;;;;5053788;28;20028;-75
2023/09/12 06:22:23;;;;;;;104.70;99.45;;;21.40;99.90;;;;;;5054775;28;20032;-74
2023/09/12 06:24:50;;;;;;;114.72;109.07;;;21.50;99.90;;;;;;5054788;28;20041;-75
2023/09/12 06:27:19;;;;;;;120.03;113.93;;;21.60;99.90;;;;;;5054446;28;20186;-74
2023/09/12 06:29:48;;;;;;;109.55;104.00;;;21.50;99.90;;;;;;5053014;28;20036;-75
2023/09/12 06:32:20;;;;;;;74.43;70.70;;;21.50;99.90;;;;;;5054171;28;20060;-75
2023/09/12 06:34:47;;;;;;;66.45;63.05;;;21.60;99.90;;;;;;5054806;28;20029;-75
2023/09/12 06:37:13;;;;;;;34.25;32.33;;;21.60;99.90;;;;;;5053445;28;20024;-74
2023/09/12 06:39:39;;;;;;;39.15;37.10;;;21.60;99.90;;;;;;5053155;28;20029;-74
2023/09/12 06:42:06;;;;;;;27.75;26.13;;;21.60;99.90;;;;;;5054520;28;20029;-74
2023/09/12 06:44:32;;;;;;;24.50;23.00;;;21.50;99.90;;;;;;5054443;28;20037;-74
2023/09/12 06:46:58;;;;;;;35.72;33.75;;;21.30;99.90;;;;;;5053855;28;20033;-74
2023/09/12 06:49:24;;;;;;;49.95;47.30;;;21.30;99.90;;;;;;5054570;28;20025;-74
2023/09/12 06:51:50;;;;;;;24.42;22.83;;;21.30;99.90;;;;;;5053481;28;20490;-75
2023/09/12 06:54:16;;;;;;;25.10;23.67;;;21.20;99.90;;;;;;5054057;28;20025;-74
2023/09/12 06:56:42;;;;;;;16.85;15.90;;;21.20;99.90;;;;;;5054286;28;20469;-75
2023/09/12 06:59:08;;;;;;;20.15;18.63;;;21.30;99.90;;;;;;5054047;28;20029;-74
2023/09/12 07:01:34;;;;;;;29.65;28.00;;;21.10;99.90;;;;;;5053778;28;20044;-74
2023/09/12 07:04:01;;;;;;;44.95;42.65;;;21.20;99.90;;;;;;5052856;28;20025;-74
2023/09/12 07:06:27;;;;;;;39.15;37.00;;;21.20;99.90;;;;;;5053976;28;20391;-75
2023/09/12 07:08:53;;;;;;;45.50;43.22;;;21.20;99.90;;;;;;5053752;28;20021;-74
2023/09/12 07:11:19;;;;;;;48.10;45.58;;;21.30;99.90;;;;;;5052678;28;20467;-75
2023/09/12 07:13:45;;;;;;;36.63;34.58;;;21.30;99.90;;;;;;5053970;28;20495;-74
2023/09/12 07:16:11;;;;;;;21.08;19.83;;;21.40;99.90;;;;;;5052227;28;20033;-74
2023/09/12 07:18:38;;;;;;;18.25;17.00;;;21.50;99.90;;;;;;5054088;28;20654;-75
2023/09/12 07:21:04;;;;;;;17.75;16.55;;;21.40;99.90;;;;;;5053994;28;20487;-74
2023/09/12 07:23:30;;;;;;;18.67;17.40;;;21.40;99.90;;;;;;5053443;28;20029;-74
2023/09/12 07:26:00;;;;;;;17.27;16.08;;;21.40;99.90;;;;;;5053559;28;20044;-74
2023/09/12 07:28:30;;;;;;;16.30;15.23;;;21.30;99.90;;;;;;5052632;28;20029;-74
2023/09/12 07:30:56;;;;;;;34.38;32.42;;;21.50;99.90;;;;;;5053094;28;20029;-74
2023/09/12 07:33:22;;;;;;;28.23;26.45;;;21.50;99.90;;;;;;5052303;28;20032;-74
2023/09/12 07:35:49;;;;;;;24.48;22.92;;;21.60;99.90;;;;;;5052211;28;20032;-74
2023/09/12 07:38:15;;;;;;;22.58;21.23;;;21.70;99.90;;;;;;5052176;28;20039;-74
2023/09/12 07:40:42;;;;;;;35.72;33.80;;;21.70;99.90;;;;;;5053299;28;20025;-74
2023/09/12 07:43:09;;;;;;;79.90;75.63;;;21.70;99.90;;;;;;5053421;28;20039;-75
2023/09/12 07:45:37;;;;;;;39.75;37.70;;;21.80;99.90;;;;;;5052907;28;20060;-74
2023/09/12 07:48:07;;;;;;;26.38;24.92;;;21.80;99.90;;;;;;5053283;28;20025;-75
2023/09/12 07:50:33;;;;;;;23.30;21.87;;;22.00;99.90;;;;;;5053174;28;20040;-74
2023/09/12 07:53:00;;;;;;;41.55;39.40;;;22.10;99.90;;;;;;5052923;28;20263;-74
2023/09/12 07:55:30;;;;;;;30.13;28.48;;;22.10;99.90;;;;;;5053158;28;20036;-75
2023/09/12 07:57:56;;;;;;;47.30;44.93;;;22.30;99.90;;;;;;5052783;28;20475;-74
2023/09/12 08:00:22;;;;;;;27.08;25.52;;;22.30;99.90;;;;;;5052542;28;20045;-74
2023/09/12 08:02:48;;;;;;;24.55;23.08;;;22.30;99.90;;;;;;5053257;28;20037;-74
2023/09/12 08:05:14;;;;;;;24.23;22.80;;;22.40;99.90;;;;;;5052794;28;20037;-75
2023/09/12 08:07:40;;;;;;;26.60;25.05;;;22.40;99.90;;;;;;5052655;28;20025;-74
2023/09/12 08:10:07;;;;;;;28.08;26.25;;;22.10;99.90;;;;;;5052819;28;20414;-75
2023/09/12 08:12:34;;;;;;;29.38;27.48;;;21.60;99.90;;;;;;5052829;28;20040;-74
2023/09/12 08:15:00;;;;;;;19.02;17.83;;;21.40;99.90;;;;;;5052424;28;20052;-74
2023/09/12 08:17:27;;;;;;;31.55;29.70;;;21.30;99.90;;;;;;5052289;28;20036;-74
2023/09/12 08:19:53;;;;;;;21.25;19.83;;;21.30;99.90;;;;;;5052866;28;20048;-74
2023/09/12 08:22:20;;;;;;;20.98;19.55;;;21.40;99.90;;;;;;5052556;28;20041;-74
2023/09/12 08:24:47;;;;;;;19.50;18.23;;;21.60;99.90;;;;;;5052075;28;20029;-77
2023/09/12 08:27:13;;;;;;;20.83;19.42;;;21.60;99.90;;;;;;5052998;28;20052;-77
2023/09/12 08:29:39;;;;;;;22.08;20.60;;;21.50;99.90;;;;;;5052451;28;20506;-77
2023/09/12 08:32:05;;;;;;;24.40;22.88;;;21.50;99.90;;;;;;5052273;28;20044;-75
2023/09/12 08:34:32;;;;;;;20.30;19.10;;;21.70;99.90;;;;;;5052741;28;20029;-74
2023/09/12 08:36:58;;;;;;;28.05;26.20;;;21.60;99.90;;;;;;5052066;28;20036;-74
2023/09/12 08:39:26;;;;;;;18.23;17.05;;;21.70;99.90;;;;;;5052471;28;20044;-75
2023/09/12 08:41:53;;;;;;;22.00;20.60;;;21.70;99.90;;;;;;5052338;28;20037;-75
2023/09/12 08:44:20;;;;;;;22.80;21.33;;;21.70;99.90;;;;;;5050998;28;20041;-74
2023/09/12 08:46:46;;;;;;;24.95;23.38;;;21.70;99.90;;;;;;5050635;28;20048;-75
2023/09/12 08:49:12;;;;;;;19.50;18.00;;;21.80;99.90;;;;;;5052274;28;20025;-75
2023/09/12 08:51:39;;;;;;;20.05;18.75;;;21.90;99.90;;;;;;5051918;28;20025;-74
2023/09/12 08:54:05;;;;;;;20.60;19.30;;;21.70;99.90;;;;;;5052799;28;20037;-74
2023/09/12 08:56:39;;;;;;;22.35;20.90;;;21.70;99.90;;;;;;5034267;28;20476;-74
2023/09/12 08:59:05;;;;;;;20.55;19.20;;;21.70;99.90;;;;;;5052090;28;20025;-74
2023/09/12 09:01:32;;;;;;;20.60;19.30;;;21.90;99.90;;;;;;5034002;28;20407;-74
2023/09/12 09:03:58;;;;;;;24.45;23.00;;;22.00;99.90;;;;;;5050511;28;20052;-74
2023/09/12 09:06:24;;;;;;;21.45;20.17;;;22.00;99.90;;;;;;5051779;28;20059;-75
2023/09/12 09:08:52;;;;;;;21.02;19.73;;;22.10;99.90;;;;;;5051052;28;20021;-75
2023/09/12 09:11:19;;;;;;;22.65;21.20;;;22.20;99.90;;;;;;5051967;28;20040;-75
2023/09/12 09:13:45;;;;;;;22.75;21.38;;;22.30;99.90;;;;;;5051797;28;20045;-75
2023/09/12 09:16:15;;;;;;;21.95;20.70;;;22.40;99.90;;;;;;5051481;28;20407;-75
2023/09/12 09:18:53;;;;;;;24.45;22.95;;;22.40;99.90;;;;;;5052013;28;20032;-75
2023/09/12 09:21:20;;;;;;;23.85;22.35;;;22.50;99.90;;;;;;5051904;28;20052;-74
2023/09/12 09:23:47;;;;;;;23.55;21.95;;;22.50;99.90;;;;;;5050804;28;20375;-74
2023/09/12 09:26:13;;;;;;;22.80;21.33;;;22.60;99.90;;;;;;5051958;28;20045;-75
2023/09/12 09:28:39;;;;;;;24.33;22.92;;;22.70;99.90;;;;;;5051947;28;20029;-74
2023/09/12 09:31:10;;;;;;;25.95;24.45;;;22.80;99.90;;;;;;5051137;28;20518;-74
2023/09/12 09:33:36;;;;;;;23.30;21.80;;;22.80;99.90;;;;;;5050821;28;20383;-73
2023/09/12 09:36:04;;;;;;;26.75;25.15;;;22.80;99.90;;;;;;5050499;28;20029;-75
2023/09/12 09:38:30;;;;;;;25.83;24.33;;;22.80;99.90;;;;;;5055889;28;20044;-75
2023/09/12 09:40:56;;;;;;;24.40;22.75;;;22.80;99.90;;;;;;5054463;28;20036;-74
2023/09/12 09:43:22;;;;;;;28.27;26.48;;;22.80;99.90;;;;;;5055669;28;20355;-75
2023/09/12 09:45:48;;;;;;;27.65;25.88;;;22.80;99.90;;;;;;5055228;28;20045;-75
2023/09/12 09:48:21;;;;;;;29.35;27.33;;;22.80;99.90;;;;;;5055350;28;20032;-75
2023/09/12 09:50:47;;;;;;;29.67;27.92;;;22.80;99.90;;;;;;5054346;28;20037;-75
2023/09/12 09:53:13;;;;;;;28.65;26.98;;;22.90;99.90;;;;;;5055509;28;20459;-74
2023/09/12 09:55:40;;;;;;;29.42;27.75;;;22.90;99.90;;;;;;5054050;28;20072;-77
2023/09/12 09:58:06;;;;;;;26.90;25.30;;;23.00;99.90;;;;;;5055407;28;20060;-77
2023/09/12 10:00:36;;;;;;;28.65;26.85;;;23.00;99.90;;;;;;5054710;28;20025;-77
2023/09/12 10:03:06;;;;;;;34.70;32.70;;;23.00;99.90;;;;;;5054928;28;20036;-75
2023/09/12 10:05:32;;;;;;;26.70;25.30;;;23.00;99.90;;;;;;5055128;28;20400;-75
2023/09/12 10:08:00;;;;;;;30.90;29.20;;;23.10;99.90;;;;;;5055245;28;20033;-75
2023/09/12 10:10:26;;;;;;;34.58;32.70;;;23.20;99.90;;;;;;5054057;28;20033;-77
2023/09/12 10:12:57;;;;;;;34.67;32.85;;;23.10;99.90;;;;;;5037411;28;20029;-77
2023/09/12 10:15:25;;;;;;;35.25;33.45;;;23.20;99.90;;;;;;5053198;28;20527;-77
2023/09/12 10:17:58;;;;;;;28.52;27.05;;;23.20;99.90;;;;;;5037254;28;20452;-77
2023/09/12 10:20:48;;;;;;;28.90;27.30;;;23.20;99.90;;;;;;5053536;28;20124;-77
2023/09/12 10:23:50;;;;;;;48.33;45.88;;;23.20;99.90;;;;;;5053354;28;20044;-77
2023/09/12 10:26:17;;;;;;;58.63;55.72;;;23.30;99.90;;;;;;5032142;28;20056;-75
2023/09/12 10:28:43;;;;;;;64.63;61.28;;;23.30;99.90;;;;;;5032822;28;20048;-75
2023/09/12 10:31:11;;;;;;;49.75;47.30;;;23.40;99.90;;;;;;5031930;28;20570;-75
2023/09/12 10:33:38;;;;;;;51.42;48.88;;;23.30;99.90;;;;;;5031319;28;20392;-75
2023/09/12 10:36:05;;;;;;;44.33;41.97;;;23.30;99.90;;;;;;5032344;28;20051;-75
2023/09/12 10:38:32;;;;;;;42.10;39.72;;;23.20;99.90;;;;;;5016172;28;20025;-75
2023/09/12 10:41:00;;;;;;;68.40;64.95;;;23.20;99.90;;;;;;5012075;28;20034;-74
2023/09/12 10:43:26;;;;;;;46.95;44.60;;;23.20;99.90;;;;;;4996478;28;20021;-75
2023/09/12 10:45:52;;;;;;;83.35;79.20;;;23.30;99.90;;;;;;4995128;28;20397;-75
2023/09/12 10:48:18;;;;;;;61.63;58.50;;;23.40;99.90;;;;;;4995459;28;20046;-75
2023/09/12 10:50:44;;;;;;;51.92;49.22;;;23.40;99.90;;;;;;4996159;28;20026;-75
2023/09/12 10:53:11;;;;;;;65.80;62.60;;;23.50;99.90;;;;;;5012626;28;20042;-75
2023/09/12 10:55:37;;;;;;;81.78;77.78;;;23.40;99.90;;;;;;5011859;28;20046;-75
2023/09/12 10:58:08;;;;;;;60.92;57.85;;;23.50;99.90;;;;;;5012542;28;20516;-75
2023/09/12 11:00:37;;;;;;;;;;;23.60;99.90;;;;;;5025370;28;20044;-75
2023/09/12 11:03:28;;;;;;;66.60;62.90;;;23.40;99.90;;;;;;5049101;28;19905;-76
2023/09/12 11:05:55;;;;;;;119.63;113.82;;;23.40;99.90;;;;;;5034200;28;20053;-76
2023/09/12 11:08:21;;;;;;;82.72;78.53;;;23.60;99.90;;;;;;5032577;28;20384;-77
2023/09/12 11:11:19;;;;;;;137.32;130.23;;;23.60;99.90;;;;;;5034187;28;20025;-78
2023/09/12 11:13:46;;;;;;;140.18;132.98;;;23.70;99.90;;;;;;5033991;28;20057;-77
2023/09/12 11:16:13;;;;;;;90.57;86.03;;;23.70;99.90;;;;;;5033117;28;20159;-77
2023/09/12 11:19:14;;;;;;;126.88;120.10;;;23.80;99.90;;;;;;5032857;28;20033;-75
2023/09/12 11:21:45;;;;;;;187.30;177.60;;;23.80;99.90;;;;;;5034172;28;20041;-77
2023/09/12 11:24:11;;;;;;;173.63;164.68;;;24.00;99.90;;;;;;5034066;28;20025;-77
2023/09/12 11:27:13;;;;;;;260.85;247.85;;;24.00;99.90;;;;;;5033581;28;20037;-77
2023/09/12 11:29:39;;;;;;;268.98;255.55;;;24.10;99.90;;;;;;4991908;28;20042;-77
2023/09/12 11:32:06;;;;;;;252.60;239.63;;;24.00;99.90;;;;;;4999989;28;20042;-77
2023/09/12 11:34:44;;;;;;;211.18;200.48;;;24.00;99.90;;;;;;4995503;28;20137;-77
2023/09/12 11:37:10;;;;;;;288.73;274.05;;;24.10;99.90;;;;;;4994710;28;20041;-77
2023/09/12 11:39:37;;;;;;;241.02;228.88;;;24.30;99.90;;;;;;5011694;28;20038;-76
2023/09/12 11:42:03;;;;;;;219.02;207.90;;;24.30;99.90;;;;;;5011371;28;20476;-77
2023/09/12 11:44:31;;;;;;;200.70;190.63;;;24.10;99.90;;;;;;5011229;28;20050;-77
2023/09/12 11:47:03;;;;;;;157.90;149.80;;;24.10;99.90;;;;;;5010105;28;20615;-77
2023/09/12 11:49:38;;;;;;;231.50;219.77;;;24.10;99.90;;;;;;5011728;28;20037;-77
2023/09/12 11:52:09;;;;;;;157.20;149.35;;;24.20;99.90;;;;;;5011404;28;20034;-77
2023/09/12 11:54:36;;;;;;;227.05;215.80;;;24.30;99.90;;;;;;5010556;28;20045;-77
2023/09/12 11:57:02;;;;;;;174.43;165.85;;;24.30;99.90;;;;;;5011082;28;20042;-77
2023/09/12 11:59:29;;;;;;;202.82;192.80;;;24.30;99.90;;;;;;5009899;28;20504;-77
2023/09/12 12:01:55;;;;;;;173.68;165.05;;;24.10;99.90;;;;;;5010620;28;20030;-77
2023/09/12 12:04:25;;;;;;;186.82;177.30;;;24.00;99.90;;;;;;5054614;28;20037;-77
2023/09/12 12:06:51;;;;;;;198.63;188.80;;;23.90;99.90;;;;;;5052887;28;20037;-77
2023/09/12 12:09:19;;;;;;;243.25;230.98;;;23.90;99.90;;;;;;5051770;28;20025;-77
2023/09/12 12:11:46;;;;;;;211.52;200.63;;;24.10;99.90;;;;;;5053061;28;20052;-77
2023/09/12 12:14:16;;;;;;;244.70;232.55;;;24.20;99.90;;;;;;5052674;28;20041;-75
2023/09/12 12:16:43;;;;;;;210.40;199.88;;;24.10;99.90;;;;;;5051143;28;20044;-75
2023/09/12 12:19:11;;;;;;;198.10;188.32;;;24.00;99.90;;;;;;5053194;28;20056;-75
2023/09/12 12:21:41;;;;;;;204.18;193.80;;;24.00;99.90;;;;;;5052699;28;20051;-75
2023/09/12 12:24:12;;;;;;;226.37;214.67;;;24.10;99.90;;;;;;5051568;28;20028;-75
2023/09/12 12:26:41;;;;;;;205.77;195.55;;;24.30;99.90;;;;;;5051298;28;20032;-75